sensor_id;sensor_type;location;lat;lon;timestamp;pressure;altitude;pressure_sealevel;temperature;humidity
61678;BME280;47575;52.054;4.334;2022-10-31T00:01:35;102317.97;;;12.40;100.00
61678;BME280;47575;52.054;4.334;2022-10-31T00:04:03;102320.59;;;12.40;100.00
61678;BME280;47575;52.054;4.334;2022-10-31T00:06:30;102318.88;;;12.39;100.00
61678;BME280;47575;52.054;4.334;2022-10-31T00:08:58;102321.53;;;12.36;100.00
61678;BME280;47575;52.054;4.334;2022-10-31T00:11:25;102317.16;;;12.35;100.00
61678;BME280;47575;52.054;4.334;2022-10-31T00:13:53;102322.50;;;12.31;100.00
61678;BME280;47575;52.054;4.334;2022-10-31T00:16:22;102324.25;;;12.32;100.00
61678;BME280;47575;52.054;4.334;2022-10-31T00:18:49;102328.66;;;12.28;100.00
61678;BME280;47575;52.054;4.334;2022-10-31T00:21:17;102326.09;;;12.25;100.00
61678;BME280;47575;52.054;4.334;2022-10-31T00:23:44;102321.69;;;12.27;100.00
61678;BME280;47575;52.054;4.334;2022-10-31T00:26:11;102319.13;;;12.23;100.00
61678;BME280;47575;52.054;4.334;2022-10-31T00:28:38;102321.69;;;12.26;100.00
61678;BME280;47575;52.054;4.334;2022-10-31T00:31:07;102324.31;;;12.26;100.00
61678;BME280;47575;52.054;4.334;2022-10-31T00:33:36;102327.84;;;12.25;100.00
61678;BME280;47575;52.054;4.334;2022-10-31T00:36:03;102333.03;;;12.29;100.00
61678;BME280;47575;52.054;4.334;2022-10-31T00:38:31;102323.44;;;12.27;100.00
61678;BME280;47575;52.054;4.334;2022-10-31T00:40:58;102335.69;;;12.26;100.00
61678;BME280;47575;52.054;4.334;2022-10-31T00:43:25;102333.06;;;12.26;100.00
61678;BME280;47575;52.054;4.334;2022-10-31T00:45:52;102330.44;;;12.26;100.00
61678;BME280;47575;52.054;4.334;2022-10-31T00:48:19;102333.03;;;12.28;100.00
61678;BME280;47575;52.054;4.334;2022-10-31T00:50:49;102333.09;;;12.25;100.00
61678;BME280;47575;52.054;4.334;2022-10-31T00:53:16;102335.75;;;12.23;100.00
61678;BME280;47575;52.054;4.334;2022-10-31T00:55:43;102331.38;;;12.24;100.00
61678;BME280;47575;52.054;4.334;2022-10-31T00:58:10;102338.31;;;12.26;100.00
61678;BME280;47575;52.054;4.334;2022-10-31T01:00:38;102332.22;;;12.24;100.00
61678;BME280;47575;52.054;4.334;2022-10-31T01:03:06;102333.13;;;12.22;100.00
61678;BME280;47575;52.054;4.334;2022-10-31T01:05:37;102323.56;;;12.19;100.00
61678;BME280;47575;52.054;4.334;2022-10-31T01:08:05;102321.81;;;12.18;100.00
61678;BME280;47575;52.054;4.334;2022-10-31T01:10:32;102319.22;;;12.16;100.00
61678;BME280;47575;52.054;4.334;2022-10-31T01:12:59;102324.50;;;12.15;100.00
61678;BME280;47575;52.054;4.334;2022-10-31T01:15:26;102333.25;;;12.15;100.00
61678;BME280;47575;52.054;4.334;2022-10-31T01:17:53;102335.06;;;12.10;100.00
61678;BME280;47575;52.054;4.334;2022-10-31T01:20:20;102333.31;;;12.11;100.00
61678;BME280;47575;52.054;4.334;2022-10-31T01:22:47;102337.72;;;12.09;100.00
61678;BME280;47575;52.054;4.334;2022-10-31T01:25:16;102337.75;;;12.07;100.00
61678;BME280;47575;52.054;4.334;2022-10-31T01:27:42;102330.69;;;12.09;100.00
61678;BME280;47575;52.054;4.334;2022-10-31T01:30:10;102330.69;;;12.11;100.00
61678;BME280;47575;52.054;4.334;2022-10-31T01:32:37;102328.97;;;12.08;100.00
61678;BME280;47575;52.054;4.334;2022-10-31T01:35:04;102317.59;;;12.06;100.00
61678;BME280;47575;52.054;4.334;2022-10-31T01:37:32;102317.66;;;12.03;100.00
61678;BME280;47575;52.054;4.334;2022-10-31T01:39:59;102328.16;;;12.03;100.00
61678;BME280;47575;52.054;4.334;2022-10-31T01:42:27;102322.88;;;12.05;100.00
61678;BME280;47575;52.054;4.334;2022-10-31T01:44:55;102321.13;;;12.05;100.00
61678;BME280;47575;52.054;4.334;2022-10-31T01:50:13;102322.03;;;12.04;100.00
61678;BME280;47575;52.054;4.334;2022-10-31T01:52:41;102318.50;;;12.05;100.00
61678;BME280;47575;52.054;4.334;2022-10-31T01:55:11;102324.53;;;12.12;100.00
61678;BME280;47575;52.054;4.334;2022-10-31T01:57:41;102320.13;;;12.14;100.00
61678;BME280;47575;52.054;4.334;2022-10-31T02:00:10;102314.03;;;12.12;100.00
61678;BME280;47575;52.054;4.334;2022-10-31T02:02:40;102320.22;;;12.09;100.00
61678;BME280;47575;52.054;4.334;2022-10-31T02:05:09;102317.63;;;12.05;100.00
61678;BME280;47575;52.054;4.334;2022-10-31T02:07:38;102315.91;;;12.04;100.00
61678;BME280;47575;52.054;4.334;2022-10-31T02:10:06;102312.34;;;12.06;100.00
61678;BME280;47575;52.054;4.334;2022-10-31T02:12:33;102314.13;;;12.07;100.00
61678;BME280;47575;52.054;4.334;2022-10-31T02:15:03;102310.63;;;12.05;100.00
61678;BME280;47575;52.054;4.334;2022-10-31T02:17:30;102316.75;;;12.06;100.00
61678;BME280;47575;52.054;4.334;2022-10-31T02:20:00;102316.78;;;12.04;100.00
61678;BME280;47575;52.054;4.334;2022-10-31T02:22:29;102315.09;;;12.00;100.00
61678;BME280;47575;52.054;4.334;2022-10-31T02:25:09;102317.78;;;11.96;100.00
61678;BME280;47575;52.054;4.334;2022-10-31T02:27:46;102315.19;;;11.94;100.00
61678;BME280;47575;52.054;4.334;2022-10-31T02:30:17;102326.50;;;11.96;100.00
61678;BME280;47575;52.054;4.334;2022-10-31T02:32:48;102316.91;;;11.95;100.00
61678;BME280;47575;52.054;4.334;2022-10-31T02:35:17;102317.81;;;11.94;100.00
61678;BME280;47575;52.054;4.334;2022-10-31T02:37:51;102315.19;;;11.94;100.00
61678;BME280;47575;52.054;4.334;2022-10-31T02:40:25;102323.00;;;11.97;100.00
61678;BME280;47575;52.054;4.334;2022-10-31T02:43:19;102318.63;;;11.96;100.00
61678;BME280;47575;52.054;4.334;2022-10-31T02:45:48;102313.44;;;11.93;100.00
61678;BME280;47575;52.054;4.334;2022-10-31T02:48:19;102317.81;;;11.94;100.00
61678;BME280;47575;52.054;4.334;2022-10-31T02:50:48;102313.50;;;11.88;100.00
61678;BME280;47575;52.054;4.334;2022-10-31T02:53:17;102320.50;;;11.88;100.00
61678;BME280;47575;52.054;4.334;2022-10-31T02:55:54;102326.69;;;11.82;100.00
61678;BME280;47575;52.054;4.334;2022-10-31T02:58:23;102317.97;;;11.79;100.00
61678;BME280;47575;52.054;4.334;2022-10-31T03:00:56;102329.38;;;11.78;100.00
61678;BME280;47575;52.054;4.334;2022-10-31T03:03:28;102319.75;;;11.75;100.00
61678;BME280;47575;52.054;4.334;2022-10-31T03:06:01;102321.56;;;11.72;100.00
61678;BME280;47575;52.054;4.334;2022-10-31T03:08:31;102318.94;;;11.73;100.00
61678;BME280;47575;52.054;4.334;2022-10-31T03:11:03;102327.72;;;11.71;100.00
61678;BME280;47575;52.054;4.334;2022-10-31T03:13:33;102326.00;;;11.67;100.00
61678;BME280;47575;52.054;4.334;2022-10-31T03:16:06;102326.91;;;11.65;100.00
61678;BME280;47575;52.054;4.334;2022-10-31T03:18:37;102318.16;;;11.65;100.00
61678;BME280;47575;52.054;4.334;2022-10-31T03:21:05;102324.28;;;11.64;100.00
61678;BME280;47575;52.054;4.334;2022-10-31T03:23:36;102325.13;;;11.68;100.00
61678;BME280;47575;52.054;4.334;2022-10-31T03:26:04;102326.06;;;11.63;100.00
61678;BME280;47575;52.054;4.334;2022-10-31T03:28:35;102328.69;;;11.63;100.00
61678;BME280;47575;52.054;4.334;2022-10-31T03:31:04;102321.69;;;11.64;100.00
61678;BME280;47575;52.054;4.334;2022-10-31T03:33:31;102327.78;;;11.64;100.00
61678;BME280;47575;52.054;4.334;2022-10-31T03:36:03;102321.63;;;11.67;100.00
61678;BME280;47575;52.054;4.334;2022-10-31T03:38:31;102326.91;;;11.65;100.00
61678;BME280;47575;52.054;4.334;2022-10-31T03:40:59;102330.44;;;11.60;100.00
61678;BME280;47575;52.054;4.334;2022-10-31T03:43:29;102329.63;;;11.58;100.00
61678;BME280;47575;52.054;4.334;2022-10-31T03:45:59;102329.66;;;11.55;100.00
61678;BME280;47575;52.054;4.334;2022-10-31T03:48:27;102327.00;;;11.58;100.00
61678;BME280;47575;52.054;4.334;2022-10-31T03:50:56;102321.78;;;11.56;100.00
61678;BME280;47575;52.054;4.334;2022-10-31T03:53:30;102332.28;;;11.55;100.00
61678;BME280;47575;52.054;4.334;2022-10-31T03:55:59;102329.72;;;11.50;100.00
61678;BME280;47575;52.054;4.334;2022-10-31T03:58:28;102326.19;;;11.51;100.00
61678;BME280;47575;52.054;4.334;2022-10-31T04:00:58;102333.22;;;11.49;100.00
61678;BME280;47575;52.054;4.334;2022-10-31T04:03:28;102330.63;;;11.46;100.00
61678;BME280;47575;52.054;4.334;2022-10-31T04:05:59;102337.59;;;11.49;100.00
61678;BME280;47575;52.054;4.334;2022-10-31T04:08:30;102345.44;;;11.50;100.00
61678;BME280;47575;52.054;4.334;2022-10-31T04:10:59;102345.44;;;11.50;100.00
61678;BME280;47575;52.054;4.334;2022-10-31T04:13:27;102341.09;;;11.49;100.00
61678;BME280;47575;52.054;4.334;2022-10-31T04:16:01;102344.56;;;11.51;100.00
61678;BME280;47575;52.054;4.334;2022-10-31T04:18:28;102346.22;;;11.58;100.00
61678;BME280;47575;52.054;4.334;2022-10-31T04:20:59;102349.75;;;11.56;100.00
61678;BME280;47575;52.054;4.334;2022-10-31T04:23:26;102350.66;;;11.55;100.00
61678;BME280;47575;52.054;4.334;2022-10-31T04:25:55;102347.13;;;11.54;100.00
61678;BME280;47575;52.054;4.334;2022-10-31T04:28:22;102344.53;;;11.53;100.00
61678;BME280;47575;52.054;4.334;2022-10-31T04:30:50;102356.75;;;11.54;100.00
61678;BME280;47575;52.054;4.334;2022-10-31T04:33:17;102345.44;;;11.50;100.00
61678;BME280;47575;52.054;4.334;2022-10-31T04:35:47;102347.19;;;11.50;100.00
61678;BME280;47575;52.054;4.334;2022-10-31T04:38:14;102337.63;;;11.47;100.00
61678;BME280;47575;52.054;4.334;2022-10-31T04:40:42;102336.72;;;11.50;100.00
61678;BME280;47575;52.054;4.334;2022-10-31T04:43:33;102340.22;;;11.49;100.00
61678;BME280;47575;52.054;4.334;2022-10-31T04:46:00;102331.50;;;11.48;100.00
61678;BME280;47575;52.054;4.334;2022-10-31T04:48:27;102330.59;;;11.49;100.00
61678;BME280;47575;52.054;4.334;2022-10-31T04:50:58;102331.47;;;11.50;100.00
61678;BME280;47575;52.054;4.334;2022-10-31T04:53:25;102327.09;;;11.50;100.00
61678;BME280;47575;52.054;4.334;2022-10-31T04:56:11;102331.44;;;11.51;100.00
61678;BME280;47575;52.054;4.334;2022-10-31T04:58:43;102334.13;;;11.48;100.00
61678;BME280;47575;52.054;4.334;2022-10-31T05:01:11;102328.06;;;11.42;100.00
61678;BME280;47575;52.054;4.334;2022-10-31T05:03:39;102334.28;;;11.33;100.00
61678;BME280;47575;52.054;4.334;2022-10-31T05:06:06;102332.56;;;11.30;100.00
61678;BME280;47575;52.054;4.334;2022-10-31T05:08:34;102329.94;;;11.30;100.00
61678;BME280;47575;52.054;4.334;2022-10-31T05:11:04;102328.22;;;11.28;100.00
61678;BME280;47575;52.054;4.334;2022-10-31T05:13:32;102326.59;;;11.18;100.00
61678;BME280;47575;52.054;4.334;2022-10-31T05:16:24;102332.75;;;11.14;100.00
61678;BME280;47575;52.054;4.334;2022-10-31T05:19:09;102325.78;;;11.11;100.00
61678;BME280;47575;52.054;4.334;2022-10-31T05:22:02;102324.94;;;11.07;100.00
61678;BME280;47575;52.054;4.334;2022-10-31T05:24:31;102319.78;;;11.03;100.00
61678;BME280;47575;52.054;4.334;2022-10-31T05:26:58;102314.59;;;10.94;100.00
61678;BME280;47575;52.054;4.334;2022-10-31T05:29:25;102319.00;;;10.90;100.00
61678;BME280;47575;52.054;4.334;2022-10-31T05:31:55;102322.53;;;10.88;100.00
61678;BME280;47575;52.054;4.334;2022-10-31T05:34:44;102312.94;;;10.85;100.00
61678;BME280;47575;52.054;4.334;2022-10-31T05:37:27;102322.53;;;10.86;100.00
61678;BME280;47575;52.054;4.334;2022-10-31T05:39:55;102304.19;;;10.86;100.00
61678;BME280;47575;52.054;4.334;2022-10-31T05:42:22;102305.91;;;10.90;100.00
61678;BME280;47575;52.054;4.334;2022-10-31T05:44:49;102309.47;;;10.85;100.00
61678;BME280;47575;52.054;4.334;2022-10-31T05:47:31;102306.84;;;10.83;100.00
61678;BME280;47575;52.054;4.334;2022-10-31T05:50:18;102305.16;;;10.80;100.00
61678;BME280;47575;52.054;4.334;2022-10-31T05:52:55;102305.25;;;10.68;100.00
61678;BME280;47575;52.054;4.334;2022-10-31T05:55:35;102298.25;;;10.69;100.00
61678;BME280;47575;52.054;4.334;2022-10-31T05:58:08;102309.56;;;10.72;100.00
61678;BME280;47575;52.054;4.334;2022-10-31T06:00:37;102300.03;;;10.67;100.00
61678;BME280;47575;52.054;4.334;2022-10-31T06:03:09;102305.22;;;10.73;100.00
61678;BME280;47575;52.054;4.334;2022-10-31T06:06:05;102304.47;;;10.60;100.00
61678;BME280;47575;52.054;4.334;2022-10-31T06:08:36;102300.03;;;10.64;100.00
61678;BME280;47575;52.054;4.334;2022-10-31T06:11:12;102297.50;;;10.54;100.00
61678;BME280;47575;52.054;4.334;2022-10-31T06:14:08;102293.19;;;10.49;100.00
61678;BME280;47575;52.054;4.334;2022-10-31T06:16:43;102296.69;;;10.49;100.00
61678;BME280;47575;52.054;4.334;2022-10-31T06:19:34;102305.34;;;10.56;100.00
61678;BME280;47575;52.054;4.334;2022-10-31T06:22:01;102307.16;;;10.51;100.00
61678;BME280;47575;52.054;4.334;2022-10-31T06:24:29;102306.22;;;10.57;100.00
61678;BME280;47575;52.054;4.334;2022-10-31T06:27:19;102307.91;;;10.64;100.00
61678;BME280;47575;52.054;4.334;2022-10-31T06:29:46;102307.91;;;10.62;100.00
61678;BME280;47575;52.054;4.334;2022-10-31T06:32:28;102305.28;;;10.65;100.00
61678;BME280;47575;52.054;4.334;2022-10-31T06:34:57;102299.16;;;10.66;100.00
61678;BME280;47575;52.054;4.334;2022-10-31T06:37:24;102295.69;;;10.63;100.00
61678;BME280;47575;52.054;4.334;2022-10-31T06:39:53;102300.91;;;10.64;100.00
61678;BME280;47575;52.054;4.334;2022-10-31T06:42:20;102303.53;;;10.66;100.00
61678;BME280;47575;52.054;4.334;2022-10-31T06:44:47;102296.53;;;10.68;100.00
61678;BME280;47575;52.054;4.334;2022-10-31T06:47:33;102300.91;;;10.67;100.00
61678;BME280;47575;52.054;4.334;2022-10-31T06:50:11;102307.84;;;10.70;100.00
61678;BME280;47575;52.054;4.334;2022-10-31T06:52:38;102307.84;;;10.71;100.00
61678;BME280;47575;52.054;4.334;2022-10-31T06:55:05;102320.06;;;10.74;100.00
61678;BME280;47575;52.054;4.334;2022-10-31T06:57:33;102325.25;;;10.77;100.00
61678;BME280;47575;52.054;4.334;2022-10-31T07:00:00;102328.72;;;10.80;100.00
61678;BME280;47575;52.054;4.334;2022-10-31T07:02:54;102326.94;;;10.82;100.00
61678;BME280;47575;52.054;4.334;2022-10-31T07:05:24;102333.88;;;10.88;100.00
61678;BME280;47575;52.054;4.334;2022-10-31T07:07:51;102334.72;;;10.90;100.00
61678;BME280;47575;52.054;4.334;2022-10-31T07:10:18;102335.56;;;10.92;100.00
61678;BME280;47575;52.054;4.334;2022-10-31T07:12:53;102333.78;;;10.97;100.00
61678;BME280;47575;52.054;4.334;2022-10-31T07:15:20;102344.22;;;11.02;100.00
61678;BME280;47575;52.054;4.334;2022-10-31T07:17:47;102341.56;;;11.06;100.00
61678;BME280;47575;52.054;4.334;2022-10-31T07:20:14;102342.34;;;11.18;100.00
61678;BME280;47575;52.054;4.334;2022-10-31T07:22:43;102347.44;;;11.28;100.00
61678;BME280;47575;52.054;4.334;2022-10-31T07:25:11;102343.88;;;11.34;100.00
61678;BME280;47575;52.054;4.334;2022-10-31T07:28:10;102350.84;;;11.36;100.00
61678;BME280;47575;52.054;4.334;2022-10-31T07:30:37;102355.13;;;11.44;100.00
61678;BME280;47575;52.054;4.334;2022-10-31T07:33:05;102356.84;;;11.48;100.00
61678;BME280;47575;52.054;4.334;2022-10-31T07:35:52;102352.47;;;11.45;100.00
61678;BME280;47575;52.054;4.334;2022-10-31T07:38:24;102349.84;;;11.48;100.00
61678;BME280;47575;52.054;4.334;2022-10-31T07:40:51;102351.50;;;11.57;100.00
61678;BME280;47575;52.054;4.334;2022-10-31T07:43:19;102356.66;;;11.61;100.00
61678;BME280;47575;52.054;4.334;2022-10-31T07:46:05;102354.06;;;11.60;100.00
61678;BME280;47575;52.054;4.334;2022-10-31T07:48:58;102349.59;;;11.68;100.00
61678;BME280;47575;52.054;4.334;2022-10-31T07:51:40;102359.09;;;11.78;100.00
61678;BME280;47575;52.054;4.334;2022-10-31T07:54:14;102352.91;;;11.85;100.00
61678;BME280;47575;52.054;4.334;2022-10-31T07:56:41;102352.88;;;11.87;100.00
61678;BME280;47575;52.054;4.334;2022-10-31T07:59:08;102351.69;;;12.11;100.00
61678;BME280;47575;52.054;4.334;2022-10-31T08:01:35;102351.41;;;12.29;100.00
61678;BME280;47575;52.054;4.334;2022-10-31T08:04:22;102362.00;;;12.79;100.00
61678;BME280;47575;52.054;4.334;2022-10-31T08:07:08;102372.91;;;13.07;100.00
61678;BME280;47575;52.054;4.334;2022-10-31T08:09:38;102382.25;;;13.23;100.00
61678;BME280;47575;52.054;4.334;2022-10-31T08:12:17;102388.03;;;13.43;100.00
61678;BME280;47575;52.054;4.334;2022-10-31T08:14:43;102394.28;;;13.81;100.00
61678;BME280;47575;52.054;4.334;2022-10-31T08:17:11;102402.75;;;13.95;100.00
61678;BME280;47575;52.054;4.334;2022-10-31T08:19:45;102406.19;;;14.37;100.00
61678;BME280;47575;52.054;4.334;2022-10-31T08:22:15;102405.19;;;14.46;100.00
61678;BME280;47575;52.054;4.334;2022-10-31T08:24:44;102414.06;;;14.78;100.00
61678;BME280;47575;52.054;4.334;2022-10-31T08:27:11;102411.03;;;14.57;100.00
61678;BME280;47575;52.054;4.334;2022-10-31T08:29:38;102412.88;;;14.89;100.00
61678;BME280;47575;52.054;4.334;2022-10-31T08:32:06;102422.34;;;15.32;100.00
61678;BME280;47575;52.054;4.334;2022-10-31T08:34:51;102406.97;;;14.80;100.00
61678;BME280;47575;52.054;4.334;2022-10-31T08:37:37;102401.72;;;14.80;100.00
61678;BME280;47575;52.054;4.334;2022-10-31T08:40:06;102402.84;;;15.05;100.00
61678;BME280;47575;52.054;4.334;2022-10-31T08:42:34;102404.97;;;15.56;100.00
61678;BME280;47575;52.054;4.334;2022-10-31T08:45:02;102395.19;;;15.61;100.00
61678;BME280;47575;52.054;4.334;2022-10-31T08:47:31;102387.84;;;16.30;100.00
61678;BME280;47575;52.054;4.334;2022-10-31T08:49:58;102366.25;;;16.17;100.00
61678;BME280;47575;52.054;4.334;2022-10-31T08:52:25;102348.72;;;16.41;100.00
61678;BME280;47575;52.054;4.334;2022-10-31T08:54:58;102316.03;;;16.17;100.00
61678;BME280;47575;52.054;4.334;2022-10-31T08:57:56;102281.03;;;15.83;100.00
61678;BME280;47575;52.054;4.334;2022-10-31T09:00:26;102250.31;;;15.19;100.00
61678;BME280;47575;52.054;4.334;2022-10-31T09:03:01;102244.94;;;15.24;100.00
61678;BME280;47575;52.054;4.334;2022-10-31T09:05:31;102230.22;;;15.15;100.00
61678;BME280;47575;52.054;4.334;2022-10-31T09:07:58;102235.84;;;15.64;100.00
61678;BME280;47575;52.054;4.334;2022-10-31T09:10:26;102215.63;;;15.63;100.00
61678;BME280;47575;52.054;4.334;2022-10-31T09:12:57;102213.53;;;16.00;100.00
61678;BME280;47575;52.054;4.334;2022-10-31T09:15:45;102187.91;;;16.04;100.00
61678;BME280;47575;52.054;4.334;2022-10-31T09:18:30;102190.31;;;16.61;100.00
61678;BME280;47575;52.054;4.334;2022-10-31T09:20:58;102183.81;;;17.19;100.00
61678;BME280;47575;52.054;4.334;2022-10-31T09:23:30;102169.31;;;17.73;100.00
61678;BME280;47575;52.054;4.334;2022-10-31T09:25:59;102141.16;;;17.92;100.00
61678;BME280;47575;52.054;4.334;2022-10-31T09:28:45;102125.13;;;17.75;100.00
61678;BME280;47575;52.054;4.334;2022-10-31T09:31:14;102103.94;;;17.31;100.00
61678;BME280;47575;52.054;4.334;2022-10-31T09:33:54;102097.13;;;16.80;100.00
61678;BME280;47575;52.054;4.334;2022-10-31T09:36:30;102097.47;;;17.60;100.00
61678;BME280;47575;52.054;4.334;2022-10-31T09:38:57;102097.25;;;17.64;100.00
61678;BME280;47575;52.054;4.334;2022-10-31T09:41:25;102092.03;;;17.63;100.00
61678;BME280;47575;52.054;4.334;2022-10-31T09:43:58;102082.69;;;17.32;100.00
61678;BME280;47575;52.054;4.334;2022-10-31T09:46:29;102067.72;;;16.87;100.00
61678;BME280;47575;52.054;4.334;2022-10-31T09:49:12;102069.50;;;16.64;100.00
61678;BME280;47575;52.054;4.334;2022-10-31T09:51:48;102079.94;;;16.67;100.00
61678;BME280;47575;52.054;4.334;2022-10-31T09:54:26;102075.75;;;16.38;100.00
61678;BME280;47575;52.054;4.334;2022-10-31T09:56:55;102070.97;;;16.24;100.00
61678;BME280;47575;52.054;4.334;2022-10-31T09:59:24;102074.22;;;16.32;100.00
61678;BME280;47575;52.054;4.334;2022-10-31T10:01:54;102089.63;;;17.35;100.00
61678;BME280;47575;52.054;4.334;2022-10-31T10:04:30;102072.53;;;18.06;100.00
61678;BME280;47575;52.054;4.334;2022-10-31T10:07:06;102057.50;;;18.07;100.00
61678;BME280;47575;52.054;4.334;2022-10-31T10:09:42;102056.25;;;17.75;100.00
61678;BME280;47575;52.054;4.334;2022-10-31T10:12:37;102048.44;;;17.50;100.00
61678;BME280;47575;52.054;4.334;2022-10-31T10:15:16;102048.63;;;17.67;100.00
61678;BME280;47575;52.054;4.334;2022-10-31T10:17:48;102035.28;;;17.90;100.00
61678;BME280;47575;52.054;4.334;2022-10-31T10:20:27;102033.25;;;17.55;100.00
61678;BME280;47575;52.054;4.334;2022-10-31T10:22:57;102034.34;;;17.71;100.00
61678;BME280;47575;52.054;4.334;2022-10-31T10:25:31;102021.00;;;17.52;100.00
61678;BME280;47575;52.054;4.334;2022-10-31T10:28:02;102017.78;;;17.02;100.00
61678;BME280;47575;52.054;4.334;2022-10-31T10:30:35;102009.09;;;17.20;100.00
61678;BME280;47575;52.054;4.334;2022-10-31T10:33:08;102010.31;;;17.33;100.00
61678;BME280;47575;52.054;4.334;2022-10-31T10:35:40;102003.22;;;17.13;100.00
61678;BME280;47575;52.054;4.334;2022-10-31T10:38:10;102010.56;;;17.27;100.00
61678;BME280;47575;52.054;4.334;2022-10-31T10:40:40;102003.91;;;17.39;100.00
61678;BME280;47575;52.054;4.334;2022-10-31T10:43:21;102002.19;;;17.38;100.00
61678;BME280;47575;52.054;4.334;2022-10-31T10:45:50;102005.03;;;17.54;100.00
61678;BME280;47575;52.054;4.334;2022-10-31T10:48:39;101993.78;;;17.49;100.00
61678;BME280;47575;52.054;4.334;2022-10-31T10:51:10;101999.31;;;17.42;100.00
61678;BME280;47575;52.054;4.334;2022-10-31T10:53:43;102001.91;;;17.24;100.00
61678;BME280;47575;52.054;4.334;2022-10-31T10:56:30;102001.47;;;17.12;100.00
61678;BME280;47575;52.054;4.334;2022-10-31T10:58:59;101996.38;;;17.08;100.00
61678;BME280;47575;52.054;4.334;2022-10-31T11:01:26;101995.00;;;17.20;100.00
61678;BME280;47575;52.054;4.334;2022-10-31T11:03:53;101994.59;;;17.08;100.00
61678;BME280;47575;52.054;4.334;2022-10-31T11:06:22;101996.00;;;17.17;100.00
61678;BME280;47575;52.054;4.334;2022-10-31T11:08:51;102000.31;;;17.40;100.00
61678;BME280;47575;52.054;4.334;2022-10-31T11:11:22;102001.44;;;18.16;100.00
61678;BME280;47575;52.054;4.334;2022-10-31T11:13:52;101987.13;;;18.39;100.00
61678;BME280;47575;52.054;4.334;2022-10-31T11:16:27;101976.66;;;18.54;100.00
61678;BME280;47575;52.054;4.334;2022-10-31T11:18:54;101965.63;;;18.45;100.00
61678;BME280;47575;52.054;4.334;2022-10-31T11:21:33;101940.66;;;18.87;100.00
61678;BME280;47575;52.054;4.334;2022-10-31T11:24:07;101935.91;;;18.57;100.00
61678;BME280;47575;52.054;4.334;2022-10-31T11:26:39;101921.66;;;18.77;100.00
61678;BME280;47575;52.054;4.334;2022-10-31T11:29:11;101911.75;;;18.44;100.00
61678;BME280;47575;52.054;4.334;2022-10-31T11:31:39;101906.97;;;18.15;100.00
61678;BME280;47575;52.054;4.334;2022-10-31T11:34:11;101903.19;;;18.20;100.00
61678;BME280;47575;52.054;4.334;2022-10-31T11:36:42;101902.94;;;18.44;100.00
61678;BME280;47575;52.054;4.334;2022-10-31T11:39:13;101899.31;;;18.09;100.00
61678;BME280;47575;52.054;4.334;2022-10-31T11:41:42;101903.91;;;18.05;100.00
61678;BME280;47575;52.054;4.334;2022-10-31T11:44:12;101897.13;;;17.79;100.00
61678;BME280;47575;52.054;4.334;2022-10-31T11:46:40;101911.31;;;17.78;100.00
61678;BME280;47575;52.054;4.334;2022-10-31T11:49:11;101907.75;;;17.59;100.00
61678;BME280;47575;52.054;4.334;2022-10-31T11:51:42;101900.59;;;17.40;100.00
61678;BME280;47575;52.054;4.334;2022-10-31T11:54:17;101908.94;;;17.72;100.00
61678;BME280;47575;52.054;4.334;2022-10-31T11:56:45;101911.13;;;17.83;100.00
61678;BME280;47575;52.054;4.334;2022-10-31T11:59:17;101908.28;;;17.67;100.00
61678;BME280;47575;52.054;4.334;2022-10-31T12:01:46;101904.28;;;17.57;100.00
61678;BME280;47575;52.054;4.334;2022-10-31T12:04:13;101899.16;;;17.33;100.00
61678;BME280;47575;52.054;4.334;2022-10-31T12:06:43;101890.75;;;17.03;100.00
61678;BME280;47575;52.054;4.334;2022-10-31T12:09:16;101895.81;;;16.87;100.00
61678;BME280;47575;52.054;4.334;2022-10-31T12:11:46;101883.81;;;17.01;100.00
61678;BME280;47575;52.054;4.334;2022-10-31T12:14:19;101886.31;;;17.04;100.00
61678;BME280;47575;52.054;4.334;2022-10-31T12:16:51;101879.22;;;17.04;100.00
61678;BME280;47575;52.054;4.334;2022-10-31T12:19:23;101873.47;;;16.95;100.00
61678;BME280;47575;52.054;4.334;2022-10-31T12:22:04;101863.84;;;17.14;100.00
61678;BME280;47575;52.054;4.334;2022-10-31T12:24:40;101851.81;;;17.07;100.00
61678;BME280;47575;52.054;4.334;2022-10-31T12:27:15;101852.97;;;17.20;100.00
61678;BME280;47575;52.054;4.334;2022-10-31T12:29:55;101849.78;;;17.53;100.00
61678;BME280;47575;52.054;4.334;2022-10-31T12:32:29;101840.47;;;17.83;100.00
61678;BME280;47575;52.054;4.334;2022-10-31T12:35:09;101830.91;;;17.79;100.00
61678;BME280;47575;52.054;4.334;2022-10-31T12:37:46;101819.69;;;17.74;100.00
61678;BME280;47575;52.054;4.334;2022-10-31T12:40:21;101816.38;;;17.69;100.00
61678;BME280;47575;52.054;4.334;2022-10-31T12:42:55;101809.47;;;17.65;100.00
61678;BME280;47575;52.054;4.334;2022-10-31T12:45:35;101803.50;;;17.80;100.00
61678;BME280;47575;52.054;4.334;2022-10-31T12:48:13;101791.84;;;17.65;100.00
61678;BME280;47575;52.054;4.334;2022-10-31T12:50:47;101782.31;;;17.99;100.00
61678;BME280;47575;52.054;4.334;2022-10-31T12:53:22;101766.81;;;18.09;100.00
61678;BME280;47575;52.054;4.334;2022-10-31T12:55:55;101753.53;;;17.91;100.00
61678;BME280;47575;52.054;4.334;2022-10-31T12:58:29;101747.75;;;17.83;100.00
61678;BME280;47575;52.054;4.334;2022-10-31T13:01:01;101740.31;;;17.73;100.00
61678;BME280;47575;52.054;4.334;2022-10-31T13:03:30;101747.88;;;17.80;100.00
61678;BME280;47575;52.054;4.334;2022-10-31T13:06:02;101741.53;;;17.65;100.00
61678;BME280;47575;52.054;4.334;2022-10-31T13:08:33;101741.88;;;17.77;100.00